Weather History for KBOK - November, 2012

Change the Weather History Date:

Saturday, November 24, 2012

  Actual Average Record
Temperature  
Mean Temperature 52 °F -  
Max Temperature 53 °F 56 °F 71 °F (1975)
Min Temperature 50 °F 43 °F 30 °F (2010)
Degree Days  
Heating Degree Days 14    
Growing Degree Days 2 (Base 50)    
Moisture  
Dew Point 52 °F    
Average Humidity 100    
Maximum Humidity 100    
Minimum Humidity 97    
Precipitation  
Precipitation 0.38 in - - ()
Sea Level Pressure  
Sea Level Pressure 30.18 in    
Wind  
Wind Speed 3 mph (SSE)    
Max Wind Speed 7 mph    
Max Gust Speed -    
Visibility 2 miles    
Events Fog , Rain    
Averages and records for this station are not official NWS values.
T = Trace of Precipitation, MM = Missing Value Source: NWS Daily Summary

Daily Weather History Graph

Daily Weather History Graph

Search for Another Location

Airport or City:

Trip Planner

Search our weather history database for the weather conditions in past years. The results will help you decide how hot, cold, wet, or windy it might be!

Date:

Astronomy

Nov. 24, 2012 Rise Set
Actual Time 7:18 AM PST 4:49 PM PST
Civil Twilight 6:47 AM PST 5:19 PM PST
Nautical Twilight 6:13 AM PST 5:54 PM PST
Astronomical Twilight 5:40 AM PST 6:27 PM PST
Moon 2:39 PM PST (11/24) 3:38 AM PST (11/24)
Length of Visible Light 10h 31m
Length of Day
9h 30m
Waxing Gibbous, 88% of the Moon is Illuminated
Nov 24
Waxing Gibbous
Nov 28
Full
Dec 6
Last Quarter
Dec 13
New
Dec 19
First Quarter

Hourly Weather History & Observations

Time (PST) Temp. Dew Point Humidity Pressure Visibility Wind Dir Wind Speed Gust Speed Precip Events Conditions
12:56 AM 52.9 °F 52.9 °F 100% 30.27 in 5.0 mi Variable 3.5 mph - 0.00 in Rain Light Rain
1:56 AM 52.9 °F 52.0 °F 97% 30.25 in 10.0 mi Variable 3.5 mph - 0.00 in   Overcast
2:56 AM 52.0 °F 52.0 °F 100% 30.26 in 9.0 mi East 4.6 mph - 0.00 in Rain Light Rain
3:56 AM 52.9 °F 52.9 °F 100% 30.24 in 10.0 mi Variable 3.5 mph - 0.00 in   Overcast
4:56 AM 52.0 °F 52.0 °F 100% 30.23 in 2.5 mi Variable 3.5 mph - 0.00 in Rain Light Rain
5:14 AM 51.8 °F 51.8 °F 100% 30.23 in 1.2 mi ESE 3.5 mph - 0.01 in Rain Light Rain
5:26 AM 51.8 °F 51.8 °F 100% 30.23 in 1.5 mi Variable 4.6 mph - 0.02 in Rain Light Rain
5:56 AM 52.0 °F 52.0 °F 100% 30.23 in 1.8 mi Variable 5.8 mph - 0.03 in Rain Light Rain
6:03 AM 51.8 °F 51.8 °F 100% 30.23 in 2.0 mi Variable 3.5 mph - 0.00 in Rain Light Rain
6:08 AM 51.8 °F 51.8 °F 100% 30.23 in 1.5 mi South 4.6 mph - 0.01 in Rain Light Rain
6:13 AM 51.8 °F 51.8 °F 100% 30.23 in 1.0 mi SSE 6.9 mph - 0.02 in Rain Light Rain
6:22 AM 51.8 °F 51.8 °F 100% 30.23 in 1.2 mi Variable 3.5 mph - 0.03 in Rain Light Rain
6:33 AM 51.8 °F 51.8 °F 100% 30.23 in 1.5 mi Variable 5.8 mph - 0.05 in Rain Light Rain
6:43 AM 51.8 °F 51.8 °F 100% 30.23 in 1.2 mi Variable 4.6 mph - 0.06 in Rain Light Rain
6:56 AM 50.9 °F 50.9 °F 100% 30.23 in 1.5 mi Variable 5.8 mph - 0.08 in Rain Light Rain
7:46 AM 51.8 °F 51.8 °F 100% 30.22 in 1.0 mi SE 4.6 mph - 0.02 in Rain Light Rain
7:56 AM 52.0 °F 52.0 °F 100% 30.23 in 1.0 mi SE 4.6 mph - 0.02 in Rain Light Rain
8:15 AM 51.8 °F 51.8 °F 100% 30.23 in 0.8 mi SSE 4.6 mph - 0.01 in Rain Light Rain
8:22 AM 51.8 °F 51.8 °F 100% 30.23 in 0.5 mi Variable 3.5 mph - 0.01 in Fog , Rain Light Rain
8:31 AM 51.8 °F 51.8 °F 100% 30.23 in 0.8 mi South 6.9 mph - 0.01 in Rain Light Rain
8:45 AM 51.8 °F 51.8 °F 100% 30.23 in 1.0 mi Variable 3.5 mph - 0.01 in Rain Light Rain
8:56 AM 52.0 °F 52.0 °F 100% 30.24 in 1.0 mi Variable 4.6 mph - 0.01 in Rain Light Rain
9:00 AM 51.8 °F 51.8 °F 100% 30.23 in 0.8 mi Variable 3.5 mph - 0.00 in Rain Light Rain
9:16 AM 51.8 °F 51.8 °F 100% 30.23 in 1.0 mi Variable 4.6 mph - 0.01 in Rain Light Rain
9:31 AM 53.6 °F 53.6 °F 100% 30.23 in 1.5 mi Variable 3.5 mph - 0.01 in Rain Light Rain
9:42 AM 53.6 °F 53.6 °F 100% 30.23 in 2.0 mi SSE 5.8 mph - 0.02 in   Overcast
9:56 AM 52.9 °F 52.9 °F 100% 30.24 in 2.0 mi SSE 5.8 mph - 0.02 in   Overcast
10:06 AM 53.6 °F 53.6 °F 100% 30.23 in 1.2 mi SSE 3.5 mph - 0.00 in Rain Light Rain
10:27 AM 53.6 °F 53.6 °F 100% 30.23 in 0.8 mi Variable 3.5 mph - 0.01 in Rain Light Rain
10:36 AM 53.6 °F 53.6 °F 100% 30.23 in 1.0 mi SE 4.6 mph - 0.02 in Rain Light Rain
10:42 AM 53.6 °F 53.6 °F 100% 30.23 in 0.8 mi South 5.8 mph - 0.02 in Rain Light Rain
10:56 AM 52.9 °F 52.9 °F 100% 30.24 in 0.5 mi Calm Calm - 0.06 in Fog , Rain Rain
11:23 AM 53.6 °F 53.6 °F 100% 30.22 in 0.8 mi SSE 4.6 mph - 0.02 in Rain Light Rain
11:29 AM 53.6 °F 53.6 °F 100% 30.21 in 1.0 mi SSE 4.6 mph - 0.02 in Rain Light Rain
11:40 AM 53.6 °F 53.6 °F 100% 30.21 in 0.5 mi Variable 4.6 mph - 0.03 in Fog Fog
11:56 AM 52.0 °F 52.0 °F 100% 30.21 in 0.2 mi SSE 4.6 mph - 0.03 in Fog Fog
12:09 PM 51.8 °F 51.8 °F 100% 30.21 in 0.5 mi Calm Calm - 0.01 in Fog Fog
12:56 PM 52.9 °F 52.9 °F 100% 30.20 in 0.5 mi SSE 5.8 mph - 0.03 in Fog Fog
1:09 PM 53.6 °F 53.6 °F 100% 30.18 in 1.0 mi SE 5.8 mph - 0.01 in   Overcast
1:18 PM 53.6 °F 53.6 °F 100% 30.19 in 0.5 mi SSE 5.8 mph - 0.02 in Fog , Rain Light Rain
1:56 PM 52.9 °F 52.9 °F 100% 30.19 in 0.5 mi Calm Calm - 0.05 in Fog , Rain Light Rain
2:20 PM 53.6 °F 53.6 °F 100% 30.18 in 1.0 mi South 3.5 mph - 0.02 in Rain Light Rain
2:31 PM 53.6 °F 53.6 °F 100% 30.18 in 1.2 mi Calm Calm - 0.02 in   Overcast
2:43 PM 53.6 °F 53.6 °F 100% 30.18 in 1.0 mi Calm Calm - 0.02 in   Overcast
2:56 PM 52.9 °F 52.9 °F 100% 30.18 in 0.5 mi Calm Calm - 0.02 in Fog , Rain Light Rain
3:26 PM 53.6 °F 53.6 °F 100% 30.17 in 0.8 mi Calm Calm - 0.01 in   Overcast
3:34 PM 53.6 °F 53.6 °F 100% 30.17 in 1.0 mi Calm Calm - 0.01 in   Overcast
3:56 PM 52.9 °F 52.9 °F 100% 30.18 in 1.0 mi Calm Calm - 0.01 in   Overcast
4:04 PM 53.6 °F 53.6 °F 100% 30.17 in 0.5 mi Calm Calm - N/A Fog Fog
4:22 PM 53.6 °F 53.6 °F 100% 30.17 in 0.8 mi Calm Calm - 0.01 in   Overcast
4:39 PM 53.6 °F 53.6 °F 100% 30.16 in 1.0 mi Calm Calm - 0.01 in   Overcast
4:49 PM 53.6 °F 53.6 °F 100% 30.15 in 1.5 mi Calm Calm - 0.01 in   Overcast
4:56 PM 52.9 °F 52.9 °F 100% 30.15 in 3.0 mi SE 4.6 mph - 0.01 in Rain Light Rain
5:14 PM 53.6 °F 53.6 °F 100% 30.16 in 1.2 mi WNW 3.5 mph - 0.00 in Rain Light Rain
5:16 PM 53.6 °F 53.6 °F 100% 30.16 in 0.5 mi Variable 4.6 mph - 0.00 in Fog , Rain Light Rain
5:24 PM 51.8 °F 51.8 °F 100% 30.15 in 0.2 mi NNW 4.6 mph - 0.01 in Fog , Rain Light Rain
5:34 PM 51.8 °F 51.8 °F 100% 30.15 in 0.8 mi Calm Calm - 0.01 in Rain Light Rain
5:46 PM 51.8 °F 51.8 °F 100% 30.15 in 1.2 mi Calm Calm - 0.01 in Rain Light Rain
5:56 PM 52.0 °F 52.0 °F 100% 30.15 in 2.0 mi Calm Calm - 0.01 in Rain Light Rain
6:05 PM 51.8 °F 51.8 °F 100% 30.14 in 4.0 mi ENE 3.5 mph - N/A   Overcast
6:56 PM 52.0 °F 52.0 °F 100% 30.14 in 0.8 mi WSW 3.5 mph - N/A   Overcast
7:03 PM 51.8 °F 51.8 °F 100% 30.14 in 0.5 mi Calm Calm - N/A Fog Fog
7:11 PM 51.8 °F 51.8 °F 100% 30.14 in 0.2 mi Calm Calm - N/A Fog Fog
7:37 PM 51.8 °F 51.8 °F 100% 30.13 in 0.5 mi NNW 3.5 mph - 0.00 in Fog , Rain Light Rain
7:46 PM 51.8 °F 51.8 °F 100% 30.13 in 0.2 mi Calm Calm - 0.00 in Fog Fog
7:56 PM 52.0 °F 52.0 °F 100% 30.14 in 0.8 mi Calm Calm - 0.00 in   Overcast
8:00 PM 51.8 °F 51.8 °F 100% 30.13 in 1.2 mi Calm Calm - N/A   Overcast
8:04 PM 51.8 °F 51.8 °F 100% 30.13 in 1.8 mi Calm Calm - N/A   Overcast
8:12 PM 51.8 °F 51.8 °F 100% 30.13 in 2.0 mi Calm Calm - N/A   Overcast
8:24 PM 51.8 °F 51.8 °F 100% 30.14 in 4.0 mi Calm Calm - N/A   Overcast
8:48 PM 51.8 °F 51.8 °F 100% 30.14 in 5.0 mi Calm Calm - N/A   Overcast
8:56 PM 52.0 °F 52.0 °F 100% 30.14 in 5.0 mi NE 3.5 mph - N/A   Overcast
9:10 PM 51.8 °F 51.8 °F 100% 30.14 in 1.8 mi Calm Calm - N/A   Overcast
9:28 PM 51.8 °F 51.8 °F 100% 30.14 in 3.0 mi Calm Calm - N/A   Overcast
9:37 PM 51.8 °F 51.8 °F 100% 30.14 in 2.0 mi Calm Calm - N/A   Overcast
9:56 PM 52.0 °F 52.0 °F 100% 30.15 in 1.0 mi Calm Calm - N/A   Overcast
10:04 PM 51.8 °F 51.8 °F 100% 30.14 in 1.5 mi Calm Calm - N/A   Overcast
10:12 PM 51.8 °F 51.8 °F 100% 30.14 in 2.5 mi Calm Calm - N/A   Overcast
10:16 PM 51.8 °F 51.8 °F 100% 30.14 in 1.2 mi Calm Calm - N/A   Overcast
10:20 PM 51.8 °F 51.8 °F 100% 30.14 in 0.8 mi Calm Calm - N/A   Overcast
10:35 PM 51.8 °F 51.8 °F 100% 30.14 in 0.8 mi Calm Calm - N/A   Overcast
10:45 PM 51.8 °F 51.8 °F 100% 30.14 in 1.0 mi West 3.5 mph - N/A   Overcast
10:49 PM 51.8 °F 51.8 °F 100% 30.14 in 0.5 mi WNW 3.5 mph - N/A Fog Fog
10:56 PM 52.0 °F 52.0 °F 100% 30.14 in 0.2 mi Calm Calm - N/A Fog Fog
11:03 PM 51.8 °F 51.8 °F 100% 30.14 in 0.2 mi Calm Calm - N/A Fog Fog
11:07 PM 51.8 °F 51.8 °F 100% 30.14 in 0.5 mi Calm Calm - N/A Fog Fog
11:27 PM 51.8 °F 51.8 °F 100% 30.14 in 0.8 mi Calm Calm - N/A   Overcast
11:49 PM 51.8 °F 51.8 °F 100% 30.14 in 0.5 mi Calm Calm - N/A Fog Fog
11:56 PM 52.0 °F 52.0 °F 100% 30.14 in 0.8 mi Calm Calm - N/A   Overcast